Time;durP1;ratioP1;P1;durP2;ratioP2;P2;SDS_P1;SDS_P2;PMS_P1;PMS_P2;Temp;Humidity;BMP_temperature;BMP_pressure;BME280_temperature;BME280_humidity;BME280_pressure;Samples;Min_cycle;Max_cycle;Signal;HPM_P1;HPM_P2
2023/03/02 00:02:20;;;;;;;13.82;11.52;;;;;;;;;;5132059;28;20043;-75
2023/03/02 00:04:48;;;;;;;14.02;12.52;;;;;;;;;;5094262;28;20080;-75
2023/03/02 00:07:18;;;;;;;15.18;12.38;;;;;;;;;;5114070;28;20039;-74
2023/03/02 00:09:45;;;;;;;13.57;12.13;;;;;;;;;;5116203;28;20060;-75
2023/03/02 00:12:11;;;;;;;14.52;11.60;;;;;;;;;;5097648;28;20098;-75
2023/03/02 00:14:37;;;;;;;12.68;11.32;;;;;;;;;;5116942;27;20549;-75
2023/03/02 00:17:03;;;;;;;12.93;11.52;;;;;;;;;;5135624;27;20047;-75
2023/03/02 00:19:30;;;;;;;14.18;12.43;;;;;;;;;;5136288;27;20047;-75
2023/03/02 00:21:56;;;;;;;14.05;12.32;;;;;;;;;;5118199;27;20047;-75
2023/03/02 00:24:22;;;;;;;17.15;12.45;;;;;;;;;;5136504;27;20075;-74
2023/03/02 00:26:48;;;;;;;13.40;11.90;;;;;;;;;;5136529;27;20054;-74
2023/03/02 00:29:14;;;;;;;14.50;11.85;;;;;;;;;;5124024;27;20049;-75
2023/03/02 00:31:40;;;;;;;14.05;12.50;;;;;;;;;;5146863;27;20046;-75
2023/03/02 00:34:06;;;;;;;14.85;12.52;;;;;;;;;;5123520;27;20284;-74
2023/03/02 00:36:32;;;;;;;14.13;11.35;;;;;;;;;;5149290;27;20118;-75
2023/03/02 00:38:58;;;;;;;15.80;12.40;;;;;;;;;;5138446;27;20392;-75
2023/03/02 00:41:24;;;;;;;17.95;12.38;;;;;;;;;;5116400;27;20047;-75
2023/03/02 00:43:50;;;;;;;13.27;10.85;;;;;;;;;;5118940;27;20050;-75
2023/03/02 00:46:18;;;;;;;12.82;10.93;;;;;;;;;;5147446;27;20455;-75
2023/03/02 00:48:44;;;;;;;16.27;11.20;;;;;;;;;;5128961;27;20126;-75
2023/03/02 00:51:10;;;;;;;14.60;12.02;;;;;;;;;;5121153;27;20073;-75
2023/03/02 00:53:36;;;;;;;14.70;11.63;;;;;;;;;;5118434;27;20039;-74
2023/03/02 00:56:03;;;;;;;15.35;12.70;;;;;;;;;;5134308;27;20054;-74
2023/03/02 00:58:29;;;;;;;18.23;12.55;;;;;;;;;;5138292;27;20065;-75
2023/03/02 01:00:55;;;;;;;14.82;12.25;;;;;;;;;;5146201;27;20119;-74
2023/03/02 01:03:22;;;;;;;14.70;12.30;;;;;;;;;;5135820;27;20047;-75
2023/03/02 01:05:48;;;;;;;15.07;12.27;;;;;;;;;;5135328;27;20444;-75
2023/03/02 01:08:14;;;;;;;15.85;12.48;;;;;;;;;;5116935;27;20420;-74
2023/03/02 01:10:40;;;;;;;15.65;11.45;;;;;;;;;;5117423;27;20047;-75
2023/03/02 01:13:06;;;;;;;15.93;12.40;;;;;;;;;;5135382;27;20518;-75
2023/03/02 01:15:32;;;;;;;12.88;11.20;;;;;;;;;;5135493;27;20050;-75
2023/03/02 01:17:59;;;;;;;15.77;12.40;;;;;;;;;;5133729;27;20393;-75
2023/03/02 01:20:25;;;;;;;14.82;12.27;;;;;;;;;;5116763;27;20076;-75
2023/03/02 01:22:52;;;;;;;16.20;13.38;;;;;;;;;;5116888;27;20049;-74
2023/03/02 01:25:18;;;;;;;17.75;12.85;;;;;;;;;;5100206;27;20134;-75
2023/03/02 01:27:44;;;;;;;14.98;12.50;;;;;;;;;;5117077;27;20072;-75
2023/03/02 01:30:11;;;;;;;19.73;13.57;;;;;;;;;;5123966;27;20126;-75
2023/03/02 01:32:37;;;;;;;19.25;14.50;;;;;;;;;;5107085;27;20150;-75
2023/03/02 01:35:03;;;;;;;20.15;15.27;;;;;;;;;;5145888;27;20039;-75
2023/03/02 01:37:29;;;;;;;20.55;15.82;;;;;;;;;;5155428;27;20050;-74
2023/03/02 01:39:55;;;;;;;19.80;15.73;;;;;;;;;;5155937;27;20049;-75
2023/03/02 01:42:21;;;;;;;21.33;15.98;;;;;;;;;;5148078;27;20039;-75
2023/03/02 01:44:49;;;;;;;20.65;16.50;;;;;;;;;;5116909;27;20192;-74
2023/03/02 01:47:21;;;;;;;22.88;17.13;;;;;;;;;;5116551;27;20035;-75
2023/03/02 01:50:15;;;;;;;21.27;17.27;;;;;;;;;;5117802;27;20449;-75
2023/03/02 01:52:41;;;;;;;22.58;17.50;;;;;;;;;;5138212;27;20039;-74
2023/03/02 01:55:09;;;;;;;22.40;17.13;;;;;;;;;;5116570;27;20047;-75
2023/03/02 01:57:42;;;;;;;20.88;16.30;;;;;;;;;;5135768;27;20046;-75
2023/03/02 02:00:11;;;;;;;23.35;18.15;;;;;;;;;;5150377;27;20372;-74
2023/03/02 02:02:40;;;;;;;22.90;18.05;;;;;;;;;;5139406;27;20042;-75
2023/03/02 02:05:07;;;;;;;23.35;18.33;;;;;;;;;;5123876;27;20086;-74
2023/03/02 02:07:34;;;;;;;22.58;18.40;;;;;;;;;;5116437;27;20039;-74
2023/03/02 02:10:00;;;;;;;25.30;19.27;;;;;;;;;;5114970;27;20135;-74
2023/03/02 02:12:26;;;;;;;25.80;19.05;;;;;;;;;;5132681;27;20114;-75
2023/03/02 02:14:53;;;;;;;23.25;18.67;;;;;;;;;;5114547;27;20047;-75
2023/03/02 02:17:19;;;;;;;25.13;18.88;;;;;;;;;;5098723;27;20476;-75
2023/03/02 02:19:45;;;;;;;26.75;19.38;;;;;;;;;;5104513;28;20455;-75
2023/03/02 02:22:14;;;;;;;26.02;19.42;;;;;;;;;;5115069;27;20118;-74
2023/03/02 02:24:44;;;;;;;27.52;20.50;;;;;;;;;;5134529;27;20122;-75
2023/03/02 02:27:10;;;;;;;27.92;19.98;;;;;;;;;;5115570;27;20042;-75
2023/03/02 02:29:44;;;;;;;30.10;20.60;;;;;;;;;;5134183;27;20063;-74
2023/03/02 02:32:15;;;;;;;28.13;21.40;;;;;;;;;;5133742;27;20117;-74
2023/03/02 02:35:02;;;;;;;29.52;20.95;;;;;;;;;;5134223;27;20742;-74
2023/03/02 02:37:41;;;;;;;29.80;20.73;;;;;;;;;;5094799;28;20040;-75
2023/03/02 02:40:13;;;;;;;28.42;20.48;;;;;;;;;;5144879;27;20384;-74
2023/03/02 02:42:41;;;;;;;27.70;21.38;;;;;;;;;;5123969;27;20054;-74
2023/03/02 02:45:16;;;;;;;31.17;20.30;;;;;;;;;;5135836;27;20039;-74
2023/03/02 02:47:42;;;;;;;27.95;20.70;;;;;;;;;;5125808;27;20054;-74
2023/03/02 02:50:16;;;;;;;29.92;21.65;;;;;;;;;;5134384;27;20503;-74
2023/03/02 02:52:42;;;;;;;35.30;26.25;;;;;;;;;;5151011;27;20046;-75
2023/03/02 02:55:13;;;;;;;42.28;32.78;;;;;;;;;;5128362;27;20043;-75
2023/03/02 02:57:39;;;;;;;36.88;26.33;;;;;;;;;;5134527;27;20047;-75
2023/03/02 03:00:06;;;;;;;42.08;27.88;;;;;;;;;;5147096;27;20070;-74
2023/03/02 03:02:34;;;;;;;41.33;28.42;;;;;;;;;;5136428;27;20112;-74
2023/03/02 03:05:03;;;;;;;39.15;26.15;;;;;;;;;;5115936;27;20098;-75
2023/03/02 03:07:30;;;;;;;36.75;23.90;;;;;;;;;;5124173;27;20391;-74
2023/03/02 03:10:14;;;;;;;40.45;25.65;;;;;;;;;;5136442;27;20270;-74
2023/03/02 03:12:41;;;;;;;39.00;25.27;;;;;;;;;;5122488;27;20043;-75
2023/03/02 03:15:09;;;;;;;45.53;27.45;;;;;;;;;;5114376;27;20042;-74
2023/03/02 03:17:35;;;;;;;46.33;28.95;;;;;;;;;;5116122;27;20050;-75
2023/03/02 03:20:08;;;;;;;46.65;28.88;;;;;;;;;;5127170;27;20499;-75
2023/03/02 03:22:35;;;;;;;46.28;29.67;;;;;;;;;;5124518;27;20047;-75
2023/03/02 03:25:01;;;;;;;48.70;29.42;;;;;;;;;;5133259;27;20138;-74
2023/03/02 03:27:27;;;;;;;49.95;30.50;;;;;;;;;;5118718;27;20125;-75
2023/03/02 03:29:53;;;;;;;52.53;31.58;;;;;;;;;;5132086;27;20134;-74
2023/03/02 03:32:20;;;;;;;56.83;33.03;;;;;;;;;;5139411;27;20043;-74
2023/03/02 03:34:46;;;;;;;56.13;33.05;;;;;;;;;;5128453;28;20050;-75
2023/03/02 03:37:14;;;;;;;56.92;32.30;;;;;;;;;;5133427;27;20125;-74
2023/03/02 03:39:40;;;;;;;56.65;32.53;;;;;;;;;;5150586;27;20047;-74
2023/03/02 03:42:06;;;;;;;48.05;30.15;;;;;;;;;;5140343;27;20038;-74
2023/03/02 03:44:33;;;;;;;49.05;30.25;;;;;;;;;;5139506;27;20070;-75
2023/03/02 03:46:59;;;;;;;49.75;31.33;;;;;;;;;;5133317;27;20031;-75
2023/03/02 03:49:26;;;;;;;46.35;29.23;;;;;;;;;;5133096;27;20049;-74
2023/03/02 03:51:52;;;;;;;42.88;28.88;;;;;;;;;;5137462;27;20065;-75
2023/03/02 03:54:18;;;;;;;42.25;29.17;;;;;;;;;;5137306;27;20483;-75
2023/03/02 03:56:45;;;;;;;44.72;28.17;;;;;;;;;;5136939;27;20043;-74
2023/03/02 03:59:13;;;;;;;42.90;28.55;;;;;;;;;;5122082;27;20194;-75
2023/03/02 04:01:41;;;;;;;43.65;28.10;;;;;;;;;;5145145;27;20122;-74
2023/03/02 04:04:08;;;;;;;41.85;27.70;;;;;;;;;;5118040;27;20051;-75
2023/03/02 04:06:34;;;;;;;40.35;26.65;;;;;;;;;;5127344;27;20047;-74
2023/03/02 04:09:03;;;;;;;39.55;26.50;;;;;;;;;;5118379;27;20357;-74
2023/03/02 04:11:37;;;;;;;41.45;27.45;;;;;;;;;;5136092;27;20466;-74
2023/03/02 04:14:03;;;;;;;39.13;25.90;;;;;;;;;;5135160;27;20126;-74
2023/03/02 04:16:29;;;;;;;37.63;25.42;;;;;;;;;;5135625;27;20076;-75
2023/03/02 04:18:56;;;;;;;38.08;24.95;;;;;;;;;;5136690;27;20470;-74
2023/03/02 04:21:22;;;;;;;40.05;26.92;;;;;;;;;;5118134;27;20104;-74
2023/03/02 04:23:48;;;;;;;42.17;27.38;;;;;;;;;;5136488;27;20130;-75
2023/03/02 04:26:14;;;;;;;44.22;27.98;;;;;;;;;;5135588;27;20436;-75
2023/03/02 04:28:40;;;;;;;43.42;27.40;;;;;;;;;;5117899;27;20506;-75
2023/03/02 04:31:06;;;;;;;42.92;27.55;;;;;;;;;;5118135;27;20535;-74
2023/03/02 04:33:32;;;;;;;46.60;28.30;;;;;;;;;;5147644;27;20088;-74
2023/03/02 04:35:58;;;;;;;47.72;29.15;;;;;;;;;;5156373;27;20139;-74
2023/03/02 04:38:28;;;;;;;52.00;29.92;;;;;;;;;;5123680;27;20043;-75
2023/03/02 04:40:55;;;;;;;52.72;29.58;;;;;;;;;;5106957;27;20443;-74
2023/03/02 04:43:21;;;;;;;52.22;29.23;;;;;;;;;;5127881;27;20039;-74
2023/03/02 04:45:47;;;;;;;55.83;30.58;;;;;;;;;;5117330;27;20051;-74
2023/03/02 04:48:13;;;;;;;55.35;31.02;;;;;;;;;;5152413;27;20118;-74
2023/03/02 04:50:39;;;;;;;57.80;30.35;;;;;;;;;;5136163;27;20096;-74
2023/03/02 04:53:06;;;;;;;52.75;29.95;;;;;;;;;;5139690;27;20467;-74
2023/03/02 04:55:32;;;;;;;61.45;31.48;;;;;;;;;;5153765;27;20062;-75
2023/03/02 04:57:58;;;;;;;54.35;30.45;;;;;;;;;;5114664;27;20110;-74
2023/03/02 05:00:24;;;;;;;56.35;30.33;;;;;;;;;;5140998;27;20039;-75
2023/03/02 05:02:50;;;;;;;56.33;31.00;;;;;;;;;;5132927;27;20448;-74
2023/03/02 05:05:18;;;;;;;59.53;31.10;;;;;;;;;;5149876;27;20100;-74
2023/03/02 05:07:44;;;;;;;60.45;30.27;;;;;;;;;;5125348;27;20125;-75
2023/03/02 05:10:14;;;;;;;62.60;29.77;;;;;;;;;;5109788;27;20055;-75
2023/03/02 05:13:01;;;;;;;56.35;28.98;;;;;;;;;;5145722;27;20039;-74
2023/03/02 05:15:29;;;;;;;57.67;28.17;;;;;;;;;;5154851;27;20142;-75
2023/03/02 05:17:55;;;;;;;50.05;27.17;;;;;;;;;;5142572;27;20038;-75
2023/03/02 05:20:26;;;;;;;50.08;26.83;;;;;;;;;;5125319;27;20045;-74
2023/03/02 05:22:53;;;;;;;85.25;28.20;;;;;;;;;;5135464;27;20195;-75
2023/03/02 05:25:19;;;;;;;48.97;26.52;;;;;;;;;;5116303;27;20074;-74
2023/03/02 05:27:45;;;;;;;44.35;23.88;;;;;;;;;;5116551;27;20043;-75
2023/03/02 05:30:12;;;;;;;46.63;25.55;;;;;;;;;;5117004;27;20039;-74
2023/03/02 05:32:38;;;;;;;51.15;26.65;;;;;;;;;;5099591;27;20039;-74
2023/03/02 05:35:05;;;;;;;73.93;26.38;;;;;;;;;;5135157;27;20043;-74
2023/03/02 05:37:43;;;;;;;55.85;26.98;;;;;;;;;;5134933;27;20437;-75
2023/03/02 05:40:10;;;;;;;50.70;26.85;;;;;;;;;;5135236;27;20416;-74
2023/03/02 05:42:36;;;;;;;50.42;27.17;;;;;;;;;;5134441;27;20078;-74
2023/03/02 05:45:04;;;;;;;56.30;26.30;;;;;;;;;;5134605;27;20043;-75
2023/03/02 05:47:30;;;;;;;55.10;29.48;;;;;;;;;;5116096;27;20082;-74
2023/03/02 05:49:56;;;;;;;55.03;28.02;;;;;;;;;;5134299;27;20108;-74
2023/03/02 05:52:22;;;;;;;52.58;27.60;;;;;;;;;;5133376;27;20050;-74
2023/03/02 05:54:48;;;;;;;49.28;27.55;;;;;;;;;;5136571;27;20126;-75
2023/03/02 05:57:14;;;;;;;61.67;26.35;;;;;;;;;;5155073;27;20070;-74
2023/03/02 05:59:40;;;;;;;43.75;25.23;;;;;;;;;;5137105;27;20073;-75
2023/03/02 06:02:06;;;;;;;40.58;24.33;;;;;;;;;;5135763;27;20055;-75
2023/03/02 06:04:32;;;;;;;43.20;24.65;;;;;;;;;;5134024;27;20042;-75
2023/03/02 06:06:58;;;;;;;44.63;24.52;;;;;;;;;;5113112;27;20027;-74
2023/03/02 06:09:24;;;;;;;44.47;24.67;;;;;;;;;;5132919;27;20555;-74
2023/03/02 06:11:50;;;;;;;50.55;27.15;;;;;;;;;;5113084;27;20043;-74
2023/03/02 06:14:16;;;;;;;55.92;26.92;;;;;;;;;;5133389;27;20047;-74
2023/03/02 06:16:42;;;;;;;44.22;25.27;;;;;;;;;;5115964;27;20054;-74
2023/03/02 06:19:08;;;;;;;55.80;26.40;;;;;;;;;;5153248;27;20125;-74
2023/03/02 06:21:34;;;;;;;41.55;26.05;;;;;;;;;;5134855;27;20130;-74
2023/03/02 06:24:00;;;;;;;76.55;27.55;;;;;;;;;;5140761;27;20487;-74
2023/03/02 06:26:26;;;;;;;39.45;26.23;;;;;;;;;;5115625;27;20051;-74
2023/03/02 06:28:52;;;;;;;43.28;27.25;;;;;;;;;;5115994;27;20066;-75
2023/03/02 06:31:18;;;;;;;51.08;27.73;;;;;;;;;;5133958;27;20035;-75
2023/03/02 06:33:44;;;;;;;42.83;28.27;;;;;;;;;;5133932;27;20491;-74
2023/03/02 06:36:11;;;;;;;55.47;28.75;;;;;;;;;;5115399;27;20043;-75
2023/03/02 06:38:37;;;;;;;43.83;28.30;;;;;;;;;;5140410;27;20534;-75
2023/03/02 06:41:03;;;;;;;44.55;27.33;;;;;;;;;;5136518;27;20035;-75
2023/03/02 06:43:29;;;;;;;52.90;28.13;;;;;;;;;;5133679;27;20410;-75
2023/03/02 06:45:55;;;;;;;50.17;29.77;;;;;;;;;;5133784;27;20125;-75
2023/03/02 06:48:21;;;;;;;54.25;28.98;;;;;;;;;;5133556;27;20043;-75
2023/03/02 06:50:47;;;;;;;39.08;26.33;;;;;;;;;;5134884;27;20043;-75
2023/03/02 06:53:14;;;;;;;40.83;25.80;;;;;;;;;;5140343;27;20039;-74
2023/03/02 06:55:40;;;;;;;35.83;23.80;;;;;;;;;;5135823;27;20078;-75
2023/03/02 06:58:06;;;;;;;36.58;25.10;;;;;;;;;;5152330;27;20046;-74
2023/03/02 07:00:32;;;;;;;35.03;25.50;;;;;;;;;;5151211;27;20047;-75
2023/03/02 07:02:58;;;;;;;43.50;25.20;;;;;;;;;;5150805;27;20042;-75
2023/03/02 07:05:24;;;;;;;38.92;25.65;;;;;;;;;;5150899;27;20039;-74
2023/03/02 07:07:50;;;;;;;61.83;26.15;;;;;;;;;;5134469;27;20510;-74
2023/03/02 07:10:16;;;;;;;43.08;25.45;;;;;;;;;;5128763;27;20062;-75
2023/03/02 07:12:42;;;;;;;42.83;25.15;;;;;;;;;;5129977;27;20471;-74
2023/03/02 07:15:11;;;;;;;39.08;24.48;;;;;;;;;;5128708;27;20079;-75
2023/03/02 07:17:37;;;;;;;38.78;24.92;;;;;;;;;;5128100;27;20507;-75
2023/03/02 07:20:04;;;;;;;43.85;24.42;;;;;;;;;;5128825;27;20091;-75
2023/03/02 07:22:31;;;;;;;39.70;24.75;;;;;;;;;;5124443;27;20054;-74
2023/03/02 07:24:57;;;;;;;34.92;22.60;;;;;;;;;;5107509;28;20066;-75
2023/03/02 07:27:23;;;;;;;116.55;26.80;;;;;;;;;;5105127;28;20134;-76
2023/03/02 07:29:49;;;;;;;50.05;25.85;;;;;;;;;;5108117;28;20614;-76
2023/03/02 07:32:15;;;;;;;46.58;24.20;;;;;;;;;;5107777;28;20154;-76
2023/03/02 07:34:41;;;;;;;39.33;24.90;;;;;;;;;;5109314;28;20109;-76
2023/03/02 07:37:07;;;;;;;40.03;24.10;;;;;;;;;;5111250;28;20047;-75
2023/03/02 07:39:33;;;;;;;36.03;23.73;;;;;;;;;;5129883;28;20122;-75
2023/03/02 07:42:00;;;;;;;87.60;25.50;;;;;;;;;;5126638;28;20185;-76
2023/03/02 07:44:27;;;;;;;42.00;26.85;;;;;;;;;;5112494;28;20055;-77
2023/03/02 07:46:53;;;;;;;39.22;25.33;;;;;;;;;;5128237;28;20126;-76
2023/03/02 07:49:19;;;;;;;39.63;25.27;;;;;;;;;;5128530;28;20051;-76
2023/03/02 07:51:45;;;;;;;50.55;26.75;;;;;;;;;;5128833;28;20082;-76
2023/03/02 07:54:11;;;;;;;46.75;24.60;;;;;;;;;;5124829;28;20051;-75
2023/03/02 07:56:37;;;;;;;69.95;24.98;;;;;;;;;;5129637;28;20039;-76
2023/03/02 07:59:03;;;;;;;37.60;24.30;;;;;;;;;;5128766;28;20058;-76
2023/03/02 08:01:29;;;;;;;36.58;25.13;;;;;;;;;;5129790;28;20118;-77
2023/03/02 08:03:55;;;;;;;38.05;24.85;;;;;;;;;;5128187;28;20043;-78
2023/03/02 08:06:21;;;;;;;98.00;26.77;;;;;;;;;;5113151;28;20051;-76
2023/03/02 08:08:48;;;;;;;55.33;25.52;;;;;;;;;;5121563;28;20384;-76
2023/03/02 08:11:15;;;;;;;59.28;25.30;;;;;;;;;;5107487;28;20189;-76
2023/03/02 08:13:42;;;;;;;75.63;26.02;;;;;;;;;;5087049;28;20048;-77
2023/03/02 08:16:09;;;;;;;35.90;24.13;;;;;;;;;;5095345;28;20557;-76
2023/03/02 08:18:36;;;;;;;39.30;25.23;;;;;;;;;;5087201;28;20048;-76
2023/03/02 08:21:02;;;;;;;54.10;25.20;;;;;;;;;;5088823;28;20044;-76
2023/03/02 08:23:28;;;;;;;36.08;23.30;;;;;;;;;;5092407;28;20130;-76
2023/03/02 08:25:54;;;;;;;33.50;22.17;;;;;;;;;;5107448;28;20043;-76
2023/03/02 08:28:21;;;;;;;36.75;22.63;;;;;;;;;;5111152;28;20480;-76
2023/03/02 08:30:56;;;;;;;33.90;21.70;;;;;;;;;;5112717;28;20047;-75
2023/03/02 08:33:22;;;;;;;63.45;23.45;;;;;;;;;;5110947;28;20035;-76
2023/03/02 08:35:59;;;;;;;35.13;21.90;;;;;;;;;;5094324;28;20572;-76
2023/03/02 08:38:26;;;;;;;35.00;21.02;;;;;;;;;;5111300;28;20437;-76
2023/03/02 08:40:52;;;;;;;31.08;20.45;;;;;;;;;;5112438;28;20043;-76
2023/03/02 08:43:19;;;;;;;28.90;19.00;;;;;;;;;;5112257;28;20094;-75
2023/03/02 08:45:45;;;;;;;27.08;18.63;;;;;;;;;;5119385;27;20061;-75
2023/03/02 08:48:11;;;;;;;29.40;18.80;;;;;;;;;;5131034;27;20046;-75
2023/03/02 08:50:37;;;;;;;26.35;18.42;;;;;;;;;;5133059;27;20047;-76
2023/03/02 08:53:03;;;;;;;26.98;18.52;;;;;;;;;;5114361;27;20043;-76
2023/03/02 08:55:29;;;;;;;28.90;19.15;;;;;;;;;;5132693;27;20050;-76
2023/03/02 08:57:55;;;;;;;29.50;18.88;;;;;;;;;;5124647;27;20088;-76
2023/03/02 09:00:21;;;;;;;27.50;18.30;;;;;;;;;;5112104;28;20471;-77
2023/03/02 09:02:48;;;;;;;28.63;17.27;;;;;;;;;;5093544;28;20065;-75
2023/03/02 09:05:16;;;;;;;28.30;17.60;;;;;;;;;;5111987;28;20054;-74
2023/03/02 09:07:42;;;;;;;25.05;16.75;;;;;;;;;;5110077;28;20055;-73
2023/03/02 09:10:11;;;;;;;29.40;17.75;;;;;;;;;;5130002;27;20503;-75
2023/03/02 09:12:37;;;;;;;25.05;16.90;;;;;;;;;;5132148;27;20104;-76
2023/03/02 09:15:03;;;;;;;31.15;17.20;;;;;;;;;;5097032;27;20051;-75
2023/03/02 09:17:29;;;;;;;25.13;16.42;;;;;;;;;;5116331;27;20471;-76
2023/03/02 09:19:55;;;;;;;26.42;16.27;;;;;;;;;;5134165;27;20133;-76
2023/03/02 09:22:21;;;;;;;25.00;15.65;;;;;;;;;;5147662;27;20047;-75
2023/03/02 09:24:47;;;;;;;27.33;15.98;;;;;;;;;;5100156;27;20796;-75
2023/03/02 09:27:13;;;;;;;27.23;16.33;;;;;;;;;;5131730;27;20043;-74
2023/03/02 09:29:39;;;;;;;29.15;16.38;;;;;;;;;;5113676;27;20092;-74
2023/03/02 09:32:06;;;;;;;31.25;17.38;;;;;;;;;;5112908;27;20085;-75
2023/03/02 09:34:32;;;;;;;28.08;15.60;;;;;;;;;;5113197;27;20480;-75
2023/03/02 09:36:58;;;;;;;28.10;16.55;;;;;;;;;;5131570;27;20108;-76
2023/03/02 09:39:24;;;;;;;24.92;14.90;;;;;;;;;;5108874;27;20503;-76
2023/03/02 09:42:06;;;;;;;28.20;16.65;;;;;;;;;;5131841;27;20074;-76
2023/03/02 09:44:55;;;;;;;28.08;16.35;;;;;;;;;;5133445;27;20069;-76
2023/03/02 09:47:28;;;;;;;31.48;16.90;;;;;;;;;;5145557;27;20129;-76
2023/03/02 09:50:05;;;;;;;31.65;16.80;;;;;;;;;;5117346;27;20046;-76
2023/03/02 09:52:49;;;;;;;27.35;15.73;;;;;;;;;;5131223;27;20039;-75
2023/03/02 09:55:17;;;;;;;31.30;16.35;;;;;;;;;;5133830;27;20043;-76
2023/03/02 09:57:45;;;;;;;30.40;16.75;;;;;;;;;;5140522;27;20067;-74
2023/03/02 10:00:11;;;;;;;28.63;17.17;;;;;;;;;;5132817;27;20050;-76
2023/03/02 10:02:58;;;;;;;29.73;16.65;;;;;;;;;;5133276;27;20039;-75
2023/03/02 10:05:28;;;;;;;29.48;15.82;;;;;;;;;;5134000;27;20418;-76
2023/03/02 10:07:54;;;;;;;30.95;16.85;;;;;;;;;;5129257;27;20046;-76
2023/03/02 10:10:26;;;;;;;27.08;15.93;;;;;;;;;;5135050;27;20059;-76
2023/03/02 10:13:01;;;;;;;25.45;15.25;;;;;;;;;;5097613;27;20067;-76
2023/03/02 10:15:39;;;;;;;24.20;15.23;;;;;;;;;;5092707;28;20126;-75
2023/03/02 10:18:20;;;;;;;25.40;15.38;;;;;;;;;;5094262;28;20035;-75
2023/03/02 10:20:59;;;;;;;25.85;15.30;;;;;;;;;;5113586;28;20059;-76
2023/03/02 10:23:30;;;;;;;23.10;14.23;;;;;;;;;;5113301;28;20043;-76
2023/03/02 10:26:15;;;;;;;22.27;13.40;;;;;;;;;;5132685;27;20049;-76
2023/03/02 10:28:43;;;;;;;21.52;13.07;;;;;;;;;;5154862;27;20487;-77
2023/03/02 10:31:12;;;;;;;20.58;13.05;;;;;;;;;;5136047;27;20099;-75
2023/03/02 10:33:40;;;;;;;21.35;13.95;;;;;;;;;;5135825;27;20042;-76
2023/03/02 10:36:17;;;;;;;20.25;13.55;;;;;;;;;;5153283;27;20055;-76
2023/03/02 10:38:45;;;;;;;19.55;12.35;;;;;;;;;;5128676;27;20080;-76
2023/03/02 10:41:14;;;;;;;20.85;12.93;;;;;;;;;;5133833;27;20458;-74
2023/03/02 10:43:45;;;;;;;20.02;13.02;;;;;;;;;;5133575;27;20043;-74
2023/03/02 10:46:12;;;;;;;16.05;11.27;;;;;;;;;;5133899;27;20043;-71
2023/03/02 10:48:46;;;;;;;16.83;11.30;;;;;;;;;;5133679;27;20039;-71
2023/03/02 10:51:20;;;;;;;15.75;11.23;;;;;;;;;;5114582;27;20050;-71
2023/03/02 10:53:46;;;;;;;16.42;12.02;;;;;;;;;;5118842;27;20035;-72
2023/03/02 10:56:31;;;;;;;16.52;11.32;;;;;;;;;;5120667;27;20043;-71
2023/03/02 10:59:02;;;;;;;15.68;11.55;;;;;;;;;;5077481;28;20070;-72
2023/03/02 11:01:28;;;;;;;13.38;10.27;;;;;;;;;;5076430;28;20071;-72
2023/03/02 11:03:55;;;;;;;16.40;10.63;;;;;;;;;;5094624;28;20093;-72
2023/03/02 11:06:22;;;;;;;15.00;9.90;;;;;;;;;;5112630;28;20032;-75
2023/03/02 11:08:58;;;;;;;14.10;10.30;;;;;;;;;;5094207;28;20492;-76
2023/03/02 11:11:24;;;;;;;13.80;9.90;;;;;;;;;;5122542;27;20055;-76
2023/03/02 11:13:51;;;;;;;13.82;10.00;;;;;;;;;;5085895;27;20038;-77
2023/03/02 11:16:17;;;;;;;14.05;10.85;;;;;;;;;;5123587;27;20047;-76
2023/03/02 11:18:43;;;;;;;12.48;9.63;;;;;;;;;;5117642;27;20031;-76
2023/03/02 11:21:23;;;;;;;13.07;10.30;;;;;;;;;;5129776;27;20035;-76
2023/03/02 11:23:49;;;;;;;12.70;9.82;;;;;;;;;;5129941;27;20498;-76
2023/03/02 11:26:18;;;;;;;12.93;9.68;;;;;;;;;;5127864;27;20062;-76
2023/03/02 11:29:04;;;;;;;13.82;10.15;;;;;;;;;;5132057;27;20089;-76
2023/03/02 11:31:34;;;;;;;11.38;9.35;;;;;;;;;;5090408;27;20038;-76
2023/03/02 11:34:00;;;;;;;12.38;9.50;;;;;;;;;;5133000;28;20135;-75
2023/03/02 11:36:36;;;;;;;11.43;9.20;;;;;;;;;;5112754;27;20217;-76
2023/03/02 11:39:08;;;;;;;10.40;8.70;;;;;;;;;;5143055;27;20050;-76
2023/03/02 11:41:35;;;;;;;12.95;10.00;;;;;;;;;;5133378;27;20457;-76
2023/03/02 11:44:28;;;;;;;10.45;9.00;;;;;;;;;;5101126;27;20159;-77
2023/03/02 11:46:59;;;;;;;11.38;9.52;;;;;;;;;;5111139;28;20092;-77
2023/03/02 11:49:28;;;;;;;10.02;8.52;;;;;;;;;;5132698;28;20446;-77
2023/03/02 11:51:57;;;;;;;10.70;9.07;;;;;;;;;;5114189;28;20130;-77
2023/03/02 11:54:40;;;;;;;10.18;8.88;;;;;;;;;;5112865;28;20047;-78
2023/03/02 11:57:14;;;;;;;11.13;9.80;;;;;;;;;;5099499;28;20048;-77
2023/03/02 11:59:40;;;;;;;10.98;9.73;;;;;;;;;;5094130;28;20464;-76
2023/03/02 12:02:10;;;;;;;11.23;9.60;;;;;;;;;;5112852;28;20361;-76
2023/03/02 12:04:37;;;;;;;11.60;9.90;;;;;;;;;;5122300;27;20407;-77
2023/03/02 12:07:15;;;;;;;11.20;9.38;;;;;;;;;;5121701;27;20047;-77
2023/03/02 12:09:41;;;;;;;11.93;9.48;;;;;;;;;;5115813;28;20086;-75
2023/03/02 12:12:32;;;;;;;11.85;10.10;;;;;;;;;;5115795;28;20316;-75
2023/03/02 12:14:59;;;;;;;10.55;9.15;;;;;;;;;;5115955;28;20202;-74
2023/03/02 12:17:24;;;;;;;11.85;9.40;;;;;;;;;;5115803;28;20043;-74
2023/03/02 12:19:55;;;;;;;10.10;8.70;;;;;;;;;;5125790;27;20038;-74
2023/03/02 12:22:26;;;;;;;9.88;8.63;;;;;;;;;;5138236;27;20115;-74
2023/03/02 12:24:59;;;;;;;10.13;8.95;;;;;;;;;;5128489;27;20043;-75
2023/03/02 12:27:26;;;;;;;11.27;9.02;;;;;;;;;;5136260;27;20069;-74
2023/03/02 12:29:55;;;;;;;9.77;8.30;;;;;;;;;;5136780;27;20095;-74
2023/03/02 12:32:26;;;;;;;10.32;8.70;;;;;;;;;;5135834;27;20164;-74
2023/03/02 12:34:56;;;;;;;13.07;10.40;;;;;;;;;;5136301;27;20096;-74
2023/03/02 12:37:32;;;;;;;12.70;9.80;;;;;;;;;;5142375;27;20079;-74
2023/03/02 12:40:17;;;;;;;13.50;9.95;;;;;;;;;;5137874;27;20138;-75
2023/03/02 12:42:49;;;;;;;12.43;10.05;;;;;;;;;;5156686;27;20183;-74
2023/03/02 12:45:34;;;;;;;13.82;10.57;;;;;;;;;;5138287;27;20042;-75
2023/03/02 12:48:02;;;;;;;13.90;10.45;;;;;;;;;;5137562;27;20047;-75
2023/03/02 12:50:30;;;;;;;14.52;11.23;;;;;;;;;;5134336;27;20047;-75
2023/03/02 12:52:58;;;;;;;13.98;10.60;;;;;;;;;;5113899;27;20386;-75
2023/03/02 12:55:24;;;;;;;13.57;10.85;;;;;;;;;;5135853;27;20152;-75
2023/03/02 12:57:51;;;;;;;12.65;10.38;;;;;;;;;;5139784;27;20054;-74
2023/03/02 13:00:18;;;;;;;13.93;10.88;;;;;;;;;;5145372;27;20050;-75
2023/03/02 13:02:47;;;;;;;15.27;10.40;;;;;;;;;;5155326;27;20042;-75
2023/03/02 13:05:17;;;;;;;12.82;10.35;;;;;;;;;;5137658;27;20039;-74
2023/03/02 13:08:03;;;;;;;12.23;9.90;;;;;;;;;;5114285;27;20078;-74
2023/03/02 13:10:39;;;;;;;12.38;10.23;;;;;;;;;;5096184;28;20048;-74
2023/03/02 13:13:04;;;;;;;;;;;;;;;;;;5114670;28;20043;-74
2023/03/02 13:15:30;;;;;;;12.30;9.63;;;;;;;;;;5114065;28;19923;-75
2023/03/02 13:17:58;;;;;;;12.23;9.65;;;;;;;;;;5095901;28;20080;-73
2023/03/02 13:20:27;;;;;;;12.57;10.20;;;;;;;;;;5096504;28;20039;-73
2023/03/02 13:22:54;;;;;;;12.52;10.40;;;;;;;;;;5095114;28;20039;-73
2023/03/02 13:25:22;;;;;;;14.85;11.43;;;;;;;;;;5113554;28;20127;-74
2023/03/02 13:27:52;;;;;;;16.35;10.80;;;;;;;;;;5095974;28;20051;-74
2023/03/02 13:30:24;;;;;;;17.58;11.07;;;;;;;;;;5079257;28;20044;-74
2023/03/02 13:32:50;;;;;;;12.70;10.38;;;;;;;;;;5095903;28;20104;-74
2023/03/02 13:35:21;;;;;;;15.68;11.30;;;;;;;;;;5095710;28;20046;-74
2023/03/02 13:37:55;;;;;;;14.32;10.43;;;;;;;;;;5114077;28;20040;-74
2023/03/02 13:40:29;;;;;;;12.80;9.60;;;;;;;;;;5113377;28;20039;-74
2023/03/02 13:42:55;;;;;;;11.52;9.45;;;;;;;;;;5112990;28;20412;-75
2023/03/02 13:45:29;;;;;;;13.80;9.40;;;;;;;;;;5094552;28;20110;-74
2023/03/02 13:47:56;;;;;;;12.15;9.15;;;;;;;;;;5093956;28;20126;-74
2023/03/02 13:50:26;;;;;;;12.40;9.55;;;;;;;;;;5113237;28;20431;-74
2023/03/02 13:52:54;;;;;;;13.13;10.05;;;;;;;;;;5111743;28;20071;-74
2023/03/02 13:55:21;;;;;;;16.73;12.07;;;;;;;;;;5095490;28;20047;-74
2023/03/02 13:57:48;;;;;;;14.30;11.15;;;;;;;;;;5095311;28;20093;-74
2023/03/02 14:00:34;;;;;;;13.55;10.35;;;;;;;;;;5113872;28;20407;-74
2023/03/02 14:03:01;;;;;;;13.13;10.10;;;;;;;;;;5113697;28;20039;-74
2023/03/02 14:05:32;;;;;;;10.32;8.13;;;;;;;;;;5095411;28;20460;-74
2023/03/02 14:07:58;;;;;;;11.80;8.80;;;;;;;;;;5095163;28;20043;-74
2023/03/02 14:10:24;;;;;;;10.82;8.48;;;;;;;;;;5095381;28;20055;-74
2023/03/02 14:12:56;;;;;;;12.55;8.45;;;;;;;;;;5113254;28;20044;-74
2023/03/02 14:15:22;;;;;;;12.02;8.77;;;;;;;;;;5095236;28;20057;-74
2023/03/02 14:17:48;;;;;;;12.05;9.60;;;;;;;;;;5094636;28;20035;-74
2023/03/02 14:20:17;;;;;;;12.45;8.88;;;;;;;;;;5113546;28;20044;-74
2023/03/02 14:22:43;;;;;;;11.30;8.90;;;;;;;;;;5094201;28;20073;-74
2023/03/02 14:25:09;;;;;;;12.57;8.98;;;;;;;;;;5093757;28;20048;-74
2023/03/02 14:27:36;;;;;;;11.40;8.18;;;;;;;;;;5112563;28;20130;-74